createdAt,value
2023-02-08T00:00:05.830Z,32.70
2023-02-08T00:02:32.652Z,32.58
2023-02-08T00:04:59.193Z,32.63
2023-02-08T00:07:25.746Z,32.53
2023-02-08T00:09:52.244Z,32.51
2023-02-08T00:12:18.743Z,32.54
2023-02-08T00:14:45.325Z,32.60
2023-02-08T00:17:11.799Z,32.46
2023-02-08T00:19:38.299Z,32.61
2023-02-08T00:22:04.794Z,32.51
2023-02-08T00:24:31.272Z,32.58
2023-02-08T00:26:57.814Z,32.35
2023-02-08T00:29:24.274Z,32.30
2023-02-08T00:31:50.994Z,32.30
2023-02-08T00:34:17.475Z,32.40
2023-02-08T00:36:43.967Z,32.33
2023-02-08T00:39:10.552Z,32.29
2023-02-08T00:41:37.186Z,32.26
2023-02-08T00:44:03.773Z,32.24
2023-02-08T00:46:30.334Z,32.28
2023-02-08T00:48:56.895Z,32.19
2023-02-08T00:51:23.402Z,32.33
2023-02-08T00:53:49.924Z,32.28
2023-02-08T00:56:16.588Z,32.29
2023-02-08T00:58:43.441Z,32.16
2023-02-08T01:01:10.793Z,32.12
2023-02-08T01:03:40.160Z,32.17
2023-02-08T01:06:09.867Z,32.09
2023-02-08T01:08:36.886Z,32.05
2023-02-08T01:11:10.839Z,32.07
2023-02-08T01:13:38.288Z,32.00
2023-02-08T01:16:13.927Z,32.12
2023-02-08T01:18:43.120Z,31.96
2023-02-08T01:21:16.372Z,31.98
2023-02-08T01:23:44.220Z,31.80
2023-02-08T01:26:15.207Z,31.83
2023-02-08T01:28:41.761Z,32.05
2023-02-08T01:31:12.632Z,31.90
2023-02-08T01:33:39.844Z,31.98
2023-02-08T01:36:07.416Z,31.96
2023-02-08T01:38:35.359Z,32.08
2023-02-08T01:41:03.121Z,31.97
2023-02-08T01:43:32.734Z,32.05
2023-02-08T01:45:59.764Z,31.94
2023-02-08T01:48:31.786Z,31.94
2023-02-08T01:51:17.319Z,31.94
2023-02-08T01:53:44.575Z,31.82
2023-02-08T01:56:17.725Z,31.78
2023-02-08T01:58:52.117Z,31.81
2023-02-08T02:01:18.856Z,31.80
2023-02-08T02:03:45.498Z,31.79
2023-02-08T02:06:17.374Z,31.68
2023-02-08T02:09:19.624Z,31.84
2023-02-08T02:11:46.185Z,31.82
2023-02-08T02:14:13.382Z,31.63
2023-02-08T02:16:39.984Z,31.73
2023-02-08T02:19:14.872Z,31.77
2023-02-08T02:22:15.021Z,31.78
2023-02-08T02:25:02.860Z,31.70
2023-02-08T02:27:42.117Z,31.70
2023-02-08T02:30:17.661Z,31.72
2023-02-08T02:32:59.672Z,31.80
2023-02-08T02:36:00.167Z,31.71
2023-02-08T02:38:52.843Z,31.67
2023-02-08T02:41:51.521Z,31.59
2023-02-08T02:44:43.960Z,31.65
2023-02-08T02:47:39.708Z,31.57
2023-02-08T02:50:18.551Z,31.61
2023-02-08T02:53:07.619Z,31.61
2023-02-08T02:55:40.380Z,31.53
2023-02-08T02:58:10.640Z,31.50
2023-02-08T03:00:37.741Z,31.46
2023-02-08T03:03:04.365Z,31.61
2023-02-08T03:05:30.942Z,31.47
2023-02-08T03:08:03.557Z,31.52
2023-02-08T03:11:27.492Z,31.41
2023-02-08T03:14:35.038Z,31.63
2023-02-08T03:17:20.131Z,31.46
2023-02-08T03:20:05.121Z,31.48
2023-02-08T03:22:50.840Z,31.63
2023-02-08T03:25:23.420Z,31.60
2023-02-08T03:28:07.656Z,31.48
2023-02-08T03:31:00.705Z,31.63
2023-02-08T03:33:36.632Z,31.66
2023-02-08T03:36:14.884Z,31.48
2023-02-08T03:38:45.282Z,31.66
2023-02-08T03:41:16.619Z,31.62
2023-02-08T03:43:48.273Z,31.44
2023-02-08T03:46:24.935Z,31.42
2023-02-08T03:49:14.897Z,31.53
2023-02-08T03:51:43.864Z,31.59
2023-02-08T03:54:20.042Z,31.48
2023-02-08T03:56:52.543Z,31.56
2023-02-08T03:59:24.966Z,31.40
2023-02-08T04:02:01.737Z,31.40
2023-02-08T04:04:34.052Z,31.29
2023-02-08T04:07:00.965Z,31.47
2023-02-08T04:09:27.510Z,31.31
2023-02-08T04:11:54.121Z,31.10
2023-02-08T04:14:20.848Z,31.27
2023-02-08T04:16:47.318Z,31.40
2023-02-08T04:19:13.798Z,31.29
2023-02-08T04:21:40.341Z,31.34
2023-02-08T04:24:07.086Z,31.19
2023-02-08T04:26:33.574Z,31.30
2023-02-08T04:29:00.030Z,31.45
2023-02-08T04:31:26.673Z,31.33
2023-02-08T04:33:53.339Z,31.30
2023-02-08T04:36:19.819Z,31.35
2023-02-08T04:38:46.316Z,31.21
2023-02-08T04:41:12.775Z,31.30
2023-02-08T04:43:39.276Z,31.27
2023-02-08T04:46:05.878Z,31.32
2023-02-08T04:48:32.484Z,31.22
2023-02-08T04:50:59.093Z,31.10
2023-02-08T04:53:25.641Z,31.08
2023-02-08T04:55:52.235Z,31.26
2023-02-08T04:58:19.250Z,31.39
2023-02-08T05:00:45.977Z,31.42
2023-02-08T05:03:13.293Z,31.55
2023-02-08T05:05:39.783Z,31.65
2023-02-08T05:08:06.715Z,31.60
2023-02-08T05:10:33.695Z,31.63
2023-02-08T05:13:00.360Z,31.72
2023-02-08T05:15:26.976Z,31.74
2023-02-08T05:17:53.557Z,31.93
2023-02-08T05:20:21.561Z,32.06
2023-02-08T05:22:48.076Z,32.04
2023-02-08T05:25:14.634Z,31.92
2023-02-08T05:27:41.169Z,31.94
2023-02-08T05:30:08.089Z,32.14
2023-02-08T05:32:34.596Z,32.30
2023-02-08T05:35:01.069Z,32.17
2023-02-08T05:37:27.811Z,32.26
2023-02-08T05:39:54.373Z,31.99
2023-02-08T05:42:20.931Z,32.32
2023-02-08T05:44:47.414Z,32.17
2023-02-08T05:47:13.992Z,32.16
2023-02-08T05:49:40.534Z,31.96
2023-02-08T05:52:07.094Z,32.11
2023-02-08T05:54:33.594Z,32.28
2023-02-08T05:57:00.185Z,32.18
2023-02-08T05:59:26.787Z,32.20
2023-02-08T06:01:53.316Z,32.17
2023-02-08T06:04:19.902Z,32.02
2023-02-08T06:06:46.451Z,32.01
2023-02-08T06:09:12.992Z,32.26
2023-02-08T06:11:39.449Z,32.32
2023-02-08T06:14:05.922Z,32.23
2023-02-08T06:16:32.444Z,32.12
2023-02-08T06:18:58.926Z,32.09
2023-02-08T06:21:25.444Z,32.00
2023-02-08T06:23:52.069Z,32.20
2023-02-08T06:26:18.632Z,32.19
2023-02-08T06:28:45.226Z,31.95
2023-02-08T06:31:11.702Z,31.99
2023-02-08T06:33:38.151Z,32.00
2023-02-08T06:36:04.858Z,32.14
2023-02-08T06:38:31.357Z,32.18
2023-02-08T06:40:58.080Z,32.03
2023-02-08T06:43:24.921Z,32.18
2023-02-08T06:45:51.430Z,32.03
2023-02-08T06:48:18.038Z,32.05
2023-02-08T06:50:44.671Z,32.06
2023-02-08T06:53:11.228Z,32.11
2023-02-08T06:55:38.755Z,32.12
2023-02-08T06:58:05.210Z,32.19
2023-02-08T07:00:31.952Z,32.06
2023-02-08T07:02:58.916Z,31.91
2023-02-08T07:05:25.410Z,32.04
2023-02-08T07:07:51.968Z,32.04
2023-02-08T07:10:18.548Z,32.30
2023-02-08T07:12:45.084Z,32.18
2023-02-08T07:15:13.250Z,32.13
2023-02-08T07:17:40.185Z,31.98
2023-02-08T07:20:07.351Z,32.08
2023-02-08T07:22:33.861Z,32.09
2023-02-08T07:25:00.491Z,31.85
2023-02-08T07:27:27.026Z,32.13
2023-02-08T07:29:53.526Z,31.84
2023-02-08T07:32:20.249Z,32.07
2023-02-08T07:34:46.969Z,31.94
2023-02-08T07:37:13.544Z,31.80
2023-02-08T07:39:40.027Z,32.01
2023-02-08T07:42:08.986Z,31.88
2023-02-08T07:44:38.032Z,32.03
2023-02-08T07:47:07.789Z,31.97
2023-02-08T07:49:34.315Z,31.78
2023-02-08T07:52:01.576Z,32.08
2023-02-08T07:54:29.206Z,31.93
2023-02-08T07:56:56.490Z,32.11
2023-02-08T07:59:23.157Z,32.02
2023-02-08T08:01:49.781Z,32.34
2023-02-08T08:04:16.522Z,32.19
2023-02-08T08:06:43.071Z,32.17
2023-02-08T08:09:09.685Z,32.42
2023-02-08T08:11:36.259Z,32.59
2023-02-08T08:14:02.730Z,32.26
2023-02-08T08:16:29.301Z,32.05
2023-02-08T08:18:55.813Z,32.02
2023-02-08T08:21:22.612Z,32.10
2023-02-08T08:23:49.106Z,31.99
2023-02-08T08:26:19.431Z,32.06
2023-02-08T08:28:46.911Z,31.98
2023-02-08T08:31:15.949Z,32.11
2023-02-08T08:33:42.642Z,32.09
2023-02-08T08:36:09.630Z,32.08
2023-02-08T08:38:38.648Z,32.02
2023-02-08T08:41:15.075Z,32.15
2023-02-08T08:43:41.801Z,32.18
2023-02-08T08:46:09.243Z,32.05
2023-02-08T08:48:36.571Z,31.87
2023-02-08T08:51:03.470Z,32.08
2023-02-08T08:53:30.478Z,32.19
2023-02-08T08:55:57.060Z,32.24
2023-02-08T08:58:23.767Z,32.06
2023-02-08T09:00:50.353Z,32.01
2023-02-08T09:03:16.931Z,32.11
2023-02-08T09:05:43.633Z,31.79
2023-02-08T09:08:10.173Z,31.89
2023-02-08T09:15:29.625Z,31.81
2023-02-08T09:17:56.495Z,31.99
2023-02-08T09:20:24.022Z,32.00
2023-02-08T09:22:50.593Z,31.95
2023-02-08T09:25:17.158Z,31.88
2023-02-08T09:30:10.904Z,32.50
2023-02-08T09:35:07.956Z,32.77
2023-02-08T09:37:34.679Z,32.27
2023-02-08T09:40:01.726Z,35.75
2023-02-08T09:42:36.102Z,35.58
2023-02-08T09:45:25.360Z,35.62
2023-02-08T09:48:03.991Z,35.75
2023-02-08T09:50:42.253Z,41.04
2023-02-08T09:53:25.174Z,40.19
2023-02-08T09:56:05.686Z,39.64
2023-02-08T09:58:34.834Z,39.48
2023-02-08T10:01:04.533Z,39.58
2023-02-08T10:03:45.152Z,39.83
2023-02-08T10:06:15.061Z,40.47
2023-02-08T10:08:43.804Z,40.07
2023-02-08T10:11:13.188Z,39.66
2023-02-08T10:14:01.045Z,39.17
2023-02-08T10:17:01.613Z,38.71
2023-02-08T10:20:00.535Z,38.43
2023-02-08T10:22:35.974Z,38.04
2023-02-08T10:25:27.238Z,37.60
2023-02-08T10:28:15.668Z,37.34
2023-02-08T10:31:11.408Z,37.14
2023-02-08T10:34:09.950Z,36.79
2023-02-08T10:36:42.069Z,36.70
2023-02-08T10:39:23.542Z,36.44
2023-02-08T10:41:51.449Z,36.50
2023-02-08T10:44:33.458Z,36.23
2023-02-08T10:47:20.843Z,36.33
2023-02-08T10:49:53.474Z,36.13
2023-02-08T10:52:20.286Z,35.96
2023-02-08T10:54:46.923Z,35.77
2023-02-08T10:57:27.149Z,35.60
2023-02-08T10:59:59.408Z,35.68
2023-02-08T11:02:31.538Z,35.70
2023-02-08T11:05:00.642Z,35.53
2023-02-08T11:07:27.376Z,35.33
2023-02-08T11:09:53.885Z,35.20
2023-02-08T11:12:22.928Z,34.98
2023-02-08T11:14:52.474Z,35.06
2023-02-08T11:17:26.193Z,34.96
2023-02-08T11:19:52.953Z,34.81
2023-02-08T11:22:21.118Z,34.94
2023-02-08T11:25:06.866Z,34.99
2023-02-08T11:27:44.817Z,34.85
2023-02-08T11:30:14.311Z,34.67
2023-02-08T11:32:42.557Z,34.75
2023-02-08T11:35:24.315Z,34.74
2023-02-08T11:37:55.255Z,34.65
2023-02-08T11:40:31.628Z,34.67
2023-02-08T11:42:58.770Z,34.70
2023-02-08T11:45:29.787Z,34.74
2023-02-08T11:47:56.611Z,34.61
2023-02-08T11:50:38.423Z,34.51
2023-02-08T11:53:23.385Z,34.65
2023-02-08T11:56:06.737Z,34.62
2023-02-08T11:58:33.415Z,34.42
2023-02-08T12:01:21.435Z,34.48
2023-02-08T12:03:50.669Z,34.48
2023-02-08T12:06:43.040Z,34.49
2023-02-08T12:09:28.045Z,34.57
2023-02-08T12:12:14.413Z,34.69
2023-02-08T12:15:01.875Z,34.66
2023-02-08T12:17:37.231Z,34.58
2023-02-08T12:20:09.797Z,34.54
2023-02-08T12:22:45.825Z,34.48
2023-02-08T12:25:15.169Z,34.68
2023-02-08T12:27:54.025Z,34.68
2023-02-08T12:30:48.320Z,34.64
2023-02-08T12:33:37.583Z,34.46
2023-02-08T12:36:28.925Z,34.65
2023-02-08T12:39:26.173Z,34.61
2023-02-08T12:41:58.983Z,34.66
2023-02-08T12:44:56.492Z,34.67
2023-02-08T12:47:54.754Z,34.70
2023-02-08T12:50:56.044Z,34.87
2023-02-08T12:53:35.083Z,34.74
2023-02-08T12:56:11.894Z,34.67
2023-02-08T12:58:47.817Z,34.92
2023-02-08T13:01:26.239Z,34.84
2023-02-08T13:04:16.926Z,34.75
2023-02-08T13:06:49.833Z,34.87
2023-02-08T13:09:43.216Z,34.91
2023-02-08T13:12:26.711Z,34.77
2023-02-08T13:15:03.190Z,35.00
2023-02-08T13:17:56.084Z,34.86
2023-02-08T13:20:41.026Z,35.05
2023-02-08T13:23:34.779Z,35.01
2023-02-08T13:26:33.002Z,35.15
2023-02-08T13:29:05.195Z,34.75
2023-02-08T13:31:41.161Z,35.16
2023-02-08T13:34:33.684Z,35.08
2023-02-08T13:37:08.809Z,35.18
2023-02-08T13:39:46.560Z,35.02
2023-02-08T13:42:27.772Z,35.07
2023-02-08T13:44:56.668Z,34.98
2023-02-08T13:47:46.220Z,35.03
2023-02-08T13:50:46.923Z,35.08
2023-02-08T13:53:14.966Z,34.83
2023-02-08T13:56:00.262Z,35.12
2023-02-08T13:58:37.902Z,35.12
2023-02-08T14:01:27.802Z,34.99
2023-02-08T14:04:12.297Z,35.09
2023-02-08T14:06:41.796Z,35.35
2023-02-08T14:09:44.858Z,35.41
2023-02-08T14:12:21.376Z,35.27
2023-02-08T14:15:06.380Z,35.08
2023-02-08T14:17:33.914Z,35.25
2023-02-08T14:20:04.784Z,35.26
2023-02-08T14:22:49.400Z,35.40
2023-02-08T14:25:30.714Z,35.31
2023-02-08T14:27:58.565Z,35.13
2023-02-08T14:30:29.122Z,35.40
2023-02-08T14:33:01.719Z,35.36
2023-02-08T14:35:30.176Z,35.44
2023-02-08T14:38:24.387Z,35.35
2023-02-08T14:40:50.990Z,35.43
2023-02-08T14:43:20.637Z,35.36
2023-02-08T14:45:49.349Z,35.41
2023-02-08T14:48:39.135Z,35.32
2023-02-08T14:51:11.791Z,35.32
2023-02-08T14:53:51.126Z,35.41
2023-02-08T14:56:20.511Z,35.39
2023-02-08T14:58:56.723Z,35.48
2023-02-08T15:01:29.051Z,35.39
2023-02-08T15:04:00.464Z,35.39
2023-02-08T15:06:49.830Z,35.60
2023-02-08T15:09:20.974Z,35.47
2023-02-08T15:11:58.755Z,35.59
2023-02-08T15:14:26.056Z,35.53
2023-02-08T15:16:56.065Z,35.75
2023-02-08T15:19:34.734Z,35.82
2023-02-08T15:22:26.812Z,35.73
2023-02-08T15:25:01.474Z,35.86
2023-02-08T15:27:34.730Z,36.25
2023-02-08T15:30:01.431Z,35.95
2023-02-08T15:32:29.763Z,35.86
2023-02-08T15:34:59.825Z,35.87
2023-02-08T15:37:30.484Z,36.10
2023-02-08T15:39:59.118Z,36.07
2023-02-08T15:42:33.164Z,36.01
2023-02-08T15:45:02.500Z,35.86
2023-02-08T15:47:33.410Z,36.07
2023-02-08T15:50:00.641Z,36.39
2023-02-08T15:52:34.944Z,36.33
2023-02-08T15:55:02.044Z,36.60
2023-02-08T15:57:40.733Z,36.36
2023-02-08T16:00:16.786Z,36.25
2023-02-08T16:02:44.068Z,36.38
2023-02-08T16:05:23.980Z,36.34
2023-02-08T16:07:51.845Z,36.44
2023-02-08T16:10:44.624Z,36.14
2023-02-08T16:13:30.821Z,36.19
2023-02-08T16:16:15.144Z,36.18
2023-02-08T16:18:47.112Z,36.13
2023-02-08T16:21:42.448Z,36.16
2023-02-08T16:24:11.948Z,35.84
2023-02-08T16:26:49.469Z,36.72
2023-02-08T16:29:30.139Z,36.19
2023-02-08T16:32:27.556Z,36.08
2023-02-08T16:34:54.717Z,35.71
2023-02-08T16:37:29.817Z,35.88
2023-02-08T16:39:57.472Z,35.61
2023-02-08T16:42:39.862Z,35.48
2023-02-08T16:45:09.439Z,35.69
2023-02-08T16:47:46.896Z,35.57
2023-02-08T16:50:22.838Z,35.51
2023-02-08T16:53:00.319Z,35.40
2023-02-08T16:55:30.064Z,35.46
2023-02-08T16:57:58.165Z,35.24
2023-02-08T17:00:26.322Z,35.13
2023-02-08T17:02:54.049Z,34.97
2023-02-08T17:05:22.836Z,34.84
2023-02-08T17:07:49.881Z,35.12
2023-02-08T17:10:31.876Z,35.17
2023-02-08T17:13:17.530Z,35.16
2023-02-08T17:15:47.880Z,34.80
2023-02-08T17:18:14.810Z,34.93
2023-02-08T17:20:41.667Z,35.01
2023-02-08T17:23:08.284Z,34.72
2023-02-08T17:25:35.232Z,34.93
2023-02-08T17:28:05.148Z,34.65
2023-02-08T17:30:40.180Z,34.69
2023-02-08T17:33:10.076Z,34.59
2023-02-08T17:35:38.583Z,34.54
2023-02-08T17:38:06.108Z,34.52
2023-02-08T17:40:35.832Z,34.75
2023-02-08T17:43:03.937Z,34.77
2023-02-08T17:45:31.180Z,34.71
2023-02-08T17:48:00.091Z,34.72
2023-02-08T17:50:27.086Z,34.59
2023-02-08T17:52:54.150Z,34.27
2023-02-08T17:55:20.676Z,34.32
2023-02-08T17:57:47.633Z,34.27
2023-02-08T18:00:23.844Z,34.25
2023-02-08T18:02:53.904Z,34.33
2023-02-08T18:05:26.143Z,34.35
2023-02-08T18:07:54.920Z,34.17
2023-02-08T18:10:22.460Z,34.04
2023-02-08T18:12:49.273Z,33.95
2023-02-08T18:15:19.929Z,34.00
2023-02-08T18:17:47.048Z,34.13
2023-02-08T18:20:14.946Z,34.12
2023-02-08T18:22:43.133Z,34.23
2023-02-08T18:25:10.518Z,33.95
2023-02-08T18:27:37.105Z,34.03
2023-02-08T18:30:04.588Z,33.82
2023-02-08T18:32:31.123Z,33.86
2023-02-08T18:34:58.602Z,33.83
2023-02-08T18:37:25.209Z,33.88
2023-02-08T18:39:52.387Z,34.40
2023-02-08T18:42:19.255Z,34.00
2023-02-08T18:44:45.968Z,33.61
2023-02-08T18:47:12.570Z,33.48
2023-02-08T18:49:40.952Z,33.25
2023-02-08T18:52:13.448Z,32.92
2023-02-08T18:54:40.380Z,33.50
2023-02-08T18:57:09.841Z,33.27
2023-02-08T18:59:37.545Z,33.51
2023-02-08T19:02:06.997Z,33.21
2023-02-08T19:04:38.726Z,33.59
2023-02-08T19:07:05.742Z,33.05
2023-02-08T19:09:35.564Z,33.05
2023-02-08T19:12:02.563Z,33.33
2023-02-08T19:14:29.229Z,33.49
2023-02-08T19:16:56.000Z,33.60
2023-02-08T19:19:22.676Z,33.43
2023-02-08T19:21:49.239Z,33.22
2023-02-08T19:24:15.887Z,32.98
2023-02-08T19:26:42.492Z,32.93
2023-02-08T19:29:13.466Z,32.57
2023-02-08T19:31:41.034Z,33.05
2023-02-08T19:34:07.880Z,32.95
2023-02-08T19:36:40.729Z,33.01
2023-02-08T19:39:08.291Z,33.07
2023-02-08T19:41:38.638Z,32.87
2023-02-08T19:44:07.644Z,32.87
2023-02-08T19:46:38.792Z,32.78
2023-02-08T19:49:07.301Z,32.84
2023-02-08T19:51:36.977Z,33.31
2023-02-08T19:54:07.152Z,32.95
2023-02-08T19:56:34.455Z,33.19
2023-02-08T19:59:04.043Z,32.94
2023-02-08T20:01:33.120Z,33.25
2023-02-08T20:04:00.117Z,32.70
2023-02-08T20:06:29.828Z,33.07
2023-02-08T20:08:56.449Z,33.01
2023-02-08T20:11:25.337Z,32.73
2023-02-08T20:13:52.637Z,32.68
2023-02-08T20:16:20.711Z,32.77
2023-02-08T20:18:48.623Z,32.82
2023-02-08T20:21:15.753Z,32.39
2023-02-08T20:23:42.393Z,32.38
2023-02-08T20:26:19.264Z,32.16
2023-02-08T20:28:50.388Z,31.93
2023-02-08T20:31:18.422Z,31.92
2023-02-08T20:33:45.115Z,31.85
2023-02-08T20:36:20.798Z,31.91
2023-02-08T20:38:51.581Z,31.98
2023-02-08T20:41:19.183Z,32.00
2023-02-08T20:43:47.004Z,31.73
2023-02-08T20:46:28.439Z,32.22
2023-02-08T20:48:56.105Z,31.81
2023-02-08T20:51:23.989Z,32.00
2023-02-08T20:53:50.886Z,31.91
2023-02-08T20:56:28.979Z,32.00
2023-02-08T20:58:55.502Z,31.84
2023-02-08T21:01:25.461Z,31.90
2023-02-08T21:03:56.278Z,32.06
2023-02-08T21:06:31.617Z,31.92
2023-02-08T21:09:00.597Z,31.70
2023-02-08T21:11:29.355Z,31.82
2023-02-08T21:13:57.242Z,32.04
2023-02-08T21:16:24.335Z,31.90
2023-02-08T21:18:51.450Z,31.81
2023-02-08T21:21:19.199Z,32.01
2023-02-08T21:23:46.527Z,31.98
2023-02-08T21:26:16.054Z,31.99
2023-02-08T21:28:43.965Z,31.95
2023-02-08T21:31:17.867Z,31.87
2023-02-08T21:33:45.090Z,31.74
2023-02-08T21:36:14.482Z,31.73
2023-02-08T21:38:41.941Z,31.62
2023-02-08T21:41:15.731Z,31.55
2023-02-08T21:43:42.496Z,31.41
2023-02-08T21:46:10.010Z,31.55
2023-02-08T21:48:55.468Z,31.52
2023-02-08T21:51:42.103Z,31.37
2023-02-08T21:54:32.134Z,31.43
2023-02-08T21:57:00.187Z,31.33
2023-02-08T21:59:27.997Z,31.12
2023-02-08T22:01:54.553Z,31.09
2023-02-08T22:04:21.139Z,31.07
2023-02-08T22:06:50.536Z,31.09
2023-02-08T22:09:18.201Z,30.96
2023-02-08T22:11:45.106Z,30.89
2023-02-08T22:14:12.736Z,30.98
2023-02-08T22:16:40.210Z,30.86
2023-02-08T22:19:07.351Z,30.90
2023-02-08T22:21:34.575Z,30.59
2023-02-08T22:24:01.315Z,30.62
2023-02-08T22:26:27.817Z,30.61
2023-02-08T22:28:54.368Z,30.50
2023-02-08T22:31:21.175Z,30.45
2023-02-08T22:33:47.929Z,30.46
2023-02-08T22:36:14.581Z,30.30
2023-02-08T22:38:41.078Z,30.24
2023-02-08T22:41:14.852Z,30.16
2023-02-08T22:43:41.743Z,30.22
2023-02-08T22:46:08.384Z,30.19
2023-02-08T22:48:35.106Z,30.06
2023-02-08T22:51:14.528Z,30.19
2023-02-08T22:53:41.377Z,30.03
2023-02-08T22:56:08.105Z,29.94
2023-02-08T22:58:35.167Z,29.82
2023-02-08T23:01:01.896Z,29.93
2023-02-08T23:03:28.721Z,29.86
2023-02-08T23:05:55.219Z,29.84
2023-02-08T23:08:22.562Z,29.78
2023-02-08T23:10:49.335Z,29.67
2023-02-08T23:13:15.833Z,29.77
2023-02-08T23:15:44.828Z,29.45
2023-02-08T23:18:12.179Z,29.62
2023-02-08T23:20:39.993Z,29.45
2023-02-08T23:23:06.956Z,29.56
2023-02-08T23:25:33.495Z,29.47
2023-02-08T23:28:00.145Z,29.36
2023-02-08T23:30:26.811Z,29.32
2023-02-08T23:32:53.325Z,29.32
2023-02-08T23:35:19.898Z,29.41
2023-02-08T23:37:46.392Z,29.38
2023-02-08T23:40:13.256Z,29.35
2023-02-08T23:42:39.782Z,29.47
2023-02-08T23:45:07.098Z,29.24
2023-02-08T23:47:34.490Z,29.18
2023-02-08T23:50:01.048Z,29.43
2023-02-08T23:52:27.534Z,29.19
2023-02-08T23:54:54.033Z,28.94
2023-02-08T23:57:20.616Z,28.99
2023-02-08T23:59:47.204Z,29.03
